sensor_id;sensor_type;location;lat;lon;timestamp;temperature;humidity
18163;DHT22;9206;50.994;4.538;2023-04-03T00:01:39;0.20;99.90
18163;DHT22;9206;50.994;4.538;2023-04-03T00:04:31;0.20;99.90
18163;DHT22;9206;50.994;4.538;2023-04-03T00:07:48;0.20;99.90
18163;DHT22;9206;50.994;4.538;2023-04-03T00:17:40;0.10;99.90
18163;DHT22;9206;50.994;4.538;2023-04-03T00:20:52;0.10;99.90
18163;DHT22;9206;50.994;4.538;2023-04-03T00:26:35;0.10;99.90
18163;DHT22;9206;50.994;4.538;2023-04-03T00:32:00;0.10;99.90
18163;DHT22;9206;50.994;4.538;2023-04-03T00:34:53;0.20;99.90
18163;DHT22;9206;50.994;4.538;2023-04-03T00:40:48;0.20;99.90
18163;DHT22;9206;50.994;4.538;2023-04-03T00:43:56;0.20;99.90
18163;DHT22;9206;50.994;4.538;2023-04-03T00:47:04;0.20;99.90
18163;DHT22;9206;50.994;4.538;2023-04-03T00:53:11;0.30;99.90
18163;DHT22;9206;50.994;4.538;2023-04-03T01:01:41;0.40;99.90
18163;DHT22;9206;50.994;4.538;2023-04-03T01:16:03;0.40;99.90
18163;DHT22;9206;50.994;4.538;2023-04-03T01:27:27;0.30;99.90
18163;DHT22;9206;50.994;4.538;2023-04-03T01:30:18;0.30;99.90
18163;DHT22;9206;50.994;4.538;2023-04-03T01:33:07;0.30;99.90
18163;DHT22;9206;50.994;4.538;2023-04-03T01:44:59;0.40;99.90
18163;DHT22;9206;50.994;4.538;2023-04-03T01:54:11;0.30;99.90
18163;DHT22;9206;50.994;4.538;2023-04-03T02:25:06;0.00;99.90
18163;DHT22;9206;50.994;4.538;2023-04-03T02:27:59;0.00;99.90
18163;DHT22;9206;50.994;4.538;2023-04-03T02:30:55;0.00;99.90
18163;DHT22;9206;50.994;4.538;2023-04-03T02:33:52;0.00;99.90
18163;DHT22;9206;50.994;4.538;2023-04-03T02:36:59;0.00;99.90
18163;DHT22;9206;50.994;4.538;2023-04-03T02:39:51;-0.10;99.90
18163;DHT22;9206;50.994;4.538;2023-04-03T02:43:09;-0.20;99.90
18163;DHT22;9206;50.994;4.538;2023-04-03T02:46:03;-0.20;99.90
18163;DHT22;9206;50.994;4.538;2023-04-03T02:49:27;-0.20;99.90
18163;DHT22;9206;50.994;4.538;2023-04-03T02:55:45;-0.10;99.90
18163;DHT22;9206;50.994;4.538;2023-04-03T02:58:36;-0.20;99.90
18163;DHT22;9206;50.994;4.538;2023-04-03T03:04:11;-0.10;99.90
18163;DHT22;9206;50.994;4.538;2023-04-03T03:06:59;-0.30;99.90
18163;DHT22;9206;50.994;4.538;2023-04-03T03:09:46;-0.30;99.90
18163;DHT22;9206;50.994;4.538;2023-04-03T03:12:35;-0.30;99.90
18163;DHT22;9206;50.994;4.538;2023-04-03T03:15:27;-0.40;99.90
18163;DHT22;9206;50.994;4.538;2023-04-03T03:18:15;-0.40;99.90
18163;DHT22;9206;50.994;4.538;2023-04-03T03:21:04;-0.50;99.90
18163;DHT22;9206;50.994;4.538;2023-04-03T03:23:54;-0.50;99.90
18163;DHT22;9206;50.994;4.538;2023-04-03T03:26:46;-0.50;99.90
18163;DHT22;9206;50.994;4.538;2023-04-03T03:29:33;-0.50;99.90
18163;DHT22;9206;50.994;4.538;2023-04-03T03:32:32;-0.60;99.90
18163;DHT22;9206;50.994;4.538;2023-04-03T03:35:22;-0.50;99.90
18163;DHT22;9206;50.994;4.538;2023-04-03T03:54:59;-0.70;99.90
18163;DHT22;9206;50.994;4.538;2023-04-03T03:58:12;-0.70;99.90
18163;DHT22;9206;50.994;4.538;2023-04-03T04:01:01;-0.80;99.90
18163;DHT22;9206;50.994;4.538;2023-04-03T04:03:49;-0.80;99.90
18163;DHT22;9206;50.994;4.538;2023-04-03T04:06:36;-0.80;99.90
18163;DHT22;9206;50.994;4.538;2023-04-03T04:09:25;-0.90;99.90
18163;DHT22;9206;50.994;4.538;2023-04-03T04:15:45;-0.90;99.90
18163;DHT22;9206;50.994;4.538;2023-04-03T04:18:59;-1.00;99.90
18163;DHT22;9206;50.994;4.538;2023-04-03T04:29:30;-1.10;99.90
18163;DHT22;9206;50.994;4.538;2023-04-03T04:32:30;-1.10;99.90
18163;DHT22;9206;50.994;4.538;2023-04-03T04:35:34;-1.10;99.90
18163;DHT22;9206;50.994;4.538;2023-04-03T04:38:25;-1.20;99.90
18163;DHT22;9206;50.994;4.538;2023-04-03T04:44:15;-1.20;99.90
18163;DHT22;9206;50.994;4.538;2023-04-03T04:47:11;-1.20;99.90
18163;DHT22;9206;50.994;4.538;2023-04-03T04:50:00;-1.20;99.90
18163;DHT22;9206;50.994;4.538;2023-04-03T04:52:50;-1.30;99.90
18163;DHT22;9206;50.994;4.538;2023-04-03T05:02:57;-1.30;99.90
18163;DHT22;9206;50.994;4.538;2023-04-03T05:24:42;-1.30;99.90
18163;DHT22;9206;50.994;4.538;2023-04-03T05:34:55;-1.20;99.90
18163;DHT22;9206;50.994;4.538;2023-04-03T05:37:48;-1.20;99.90
18163;DHT22;9206;50.994;4.538;2023-04-03T05:51:20;0.20;99.90
18163;DHT22;9206;50.994;4.538;2023-04-03T06:05:19;4.60;99.90
18163;DHT22;9206;50.994;4.538;2023-04-03T06:12:09;6.10;99.90
18163;DHT22;9206;50.994;4.538;2023-04-03T06:15:15;7.00;99.90
18163;DHT22;9206;50.994;4.538;2023-04-03T06:20:41;8.60;99.90
18163;DHT22;9206;50.994;4.538;2023-04-03T07:56:46;6.00;99.90
18163;DHT22;9206;50.994;4.538;2023-04-03T08:15:57;11.10;99.90
18163;DHT22;9206;50.994;4.538;2023-04-03T08:18:48;12.00;99.90
18163;DHT22;9206;50.994;4.538;2023-04-03T08:28:31;12.60;99.90
18163;DHT22;9206;50.994;4.538;2023-04-03T08:31:26;13.10;99.90
18163;DHT22;9206;50.994;4.538;2023-04-03T08:34:20;13.60;99.90
18163;DHT22;9206;50.994;4.538;2023-04-03T08:37:13;14.20;99.90
18163;DHT22;9206;50.994;4.538;2023-04-03T08:40:18;14.00;99.90
18163;DHT22;9206;50.994;4.538;2023-04-03T08:43:27;14.10;99.90
18163;DHT22;9206;50.994;4.538;2023-04-03T08:46:59;14.70;99.90
18163;DHT22;9206;50.994;4.538;2023-04-03T08:50:26;15.40;99.90
18163;DHT22;9206;50.994;4.538;2023-04-03T08:56:04;15.40;99.90
18163;DHT22;9206;50.994;4.538;2023-04-03T09:02:43;15.00;99.90
18163;DHT22;9206;50.994;4.538;2023-04-03T09:06:07;15.20;99.90
18163;DHT22;9206;50.994;4.538;2023-04-03T09:09:27;14.40;99.90
18163;DHT22;9206;50.994;4.538;2023-04-03T09:20:02;16.00;99.90
18163;DHT22;9206;50.994;4.538;2023-04-03T09:22:52;15.50;99.90
18163;DHT22;9206;50.994;4.538;2023-04-03T09:29:28;17.10;99.90
18163;DHT22;9206;50.994;4.538;2023-04-03T10:38:16;16.60;99.90
18163;DHT22;9206;50.994;4.538;2023-04-03T10:41:24;17.10;99.90
18163;DHT22;9206;50.994;4.538;2023-04-03T10:44:29;17.20;99.90
18163;DHT22;9206;50.994;4.538;2023-04-03T10:47:21;16.90;99.90
18163;DHT22;9206;50.994;4.538;2023-04-03T11:40:40;16.60;98.10
18163;DHT22;9206;50.994;4.538;2023-04-03T11:44:31;16.80;97.00
18163;DHT22;9206;50.994;4.538;2023-04-03T11:47:44;16.60;94.30
18163;DHT22;9206;50.994;4.538;2023-04-03T12:04:37;14.60;94.90
18163;DHT22;9206;50.994;4.538;2023-04-03T12:07:26;15.20;95.80
18163;DHT22;9206;50.994;4.538;2023-04-03T12:40:51;15.20;92.20
18163;DHT22;9206;50.994;4.538;2023-04-03T13:17:45;13.60;95.60
18163;DHT22;9206;50.994;4.538;2023-04-03T13:43:19;12.90;95.60
18163;DHT22;9206;50.994;4.538;2023-04-03T13:46:21;12.90;99.90
18163;DHT22;9206;50.994;4.538;2023-04-03T13:49:31;13.10;94.60
18163;DHT22;9206;50.994;4.538;2023-04-03T14:03:53;13.00;94.10
18163;DHT22;9206;50.994;4.538;2023-04-03T14:14:13;12.70;94.30
18163;DHT22;9206;50.994;4.538;2023-04-03T14:23:47;12.80;93.70
18163;DHT22;9206;50.994;4.538;2023-04-03T14:26:38;12.50;93.30
18163;DHT22;9206;50.994;4.538;2023-04-03T15:00:21;12.60;92.40
18163;DHT22;9206;50.994;4.538;2023-04-03T15:11:11;12.50;93.00
18163;DHT22;9206;50.994;4.538;2023-04-03T15:14:24;12.80;93.30
18163;DHT22;9206;50.994;4.538;2023-04-03T15:17:18;12.70;93.30
18163;DHT22;9206;50.994;4.538;2023-04-03T15:20:13;12.30;91.90
18163;DHT22;9206;50.994;4.538;2023-04-03T15:23:01;12.30;91.90
18163;DHT22;9206;50.994;4.538;2023-04-03T15:25:49;12.50;92.00
18163;DHT22;9206;50.994;4.538;2023-04-03T15:28:39;12.40;92.40
18163;DHT22;9206;50.994;4.538;2023-04-03T15:31:27;12.30;92.40
18163;DHT22;9206;50.994;4.538;2023-04-03T15:34:31;12.30;92.40
18163;DHT22;9206;50.994;4.538;2023-04-03T15:37:30;12.10;92.90
18163;DHT22;9206;50.994;4.538;2023-04-03T15:40:21;12.20;93.30
18163;DHT22;9206;50.994;4.538;2023-04-03T15:43:28;12.20;93.30
18163;DHT22;9206;50.994;4.538;2023-04-03T15:59:18;11.80;92.80
18163;DHT22;9206;50.994;4.538;2023-04-03T16:02:21;11.80;92.60
18163;DHT22;9206;50.994;4.538;2023-04-03T16:05:25;11.60;93.00
18163;DHT22;9206;50.994;4.538;2023-04-03T16:08:19;11.60;93.80
18163;DHT22;9206;50.994;4.538;2023-04-03T16:11:12;11.50;93.60
18163;DHT22;9206;50.994;4.538;2023-04-03T16:24:21;11.00;94.00
18163;DHT22;9206;50.994;4.538;2023-04-03T16:29:43;10.90;93.60
18163;DHT22;9206;50.994;4.538;2023-04-03T16:33:08;10.90;93.80
18163;DHT22;9206;50.994;4.538;2023-04-03T16:36:28;10.70;93.80
18163;DHT22;9206;50.994;4.538;2023-04-03T16:42:38;10.70;95.00
18163;DHT22;9206;50.994;4.538;2023-04-03T16:48:49;10.80;96.30
18163;DHT22;9206;50.994;4.538;2023-04-03T16:51:37;10.70;96.20
18163;DHT22;9206;50.994;4.538;2023-04-03T16:54:26;10.50;96.50
18163;DHT22;9206;50.994;4.538;2023-04-03T17:04:44;10.20;96.90
18163;DHT22;9206;50.994;4.538;2023-04-03T17:07:32;10.20;96.70
18163;DHT22;9206;50.994;4.538;2023-04-03T17:29:17;9.50;99.30
18163;DHT22;9206;50.994;4.538;2023-04-03T17:32:17;9.40;99.70
18163;DHT22;9206;50.994;4.538;2023-04-03T17:35:08;9.30;99.80
18163;DHT22;9206;50.994;4.538;2023-04-03T17:37:59;9.30;99.60
18163;DHT22;9206;50.994;4.538;2023-04-03T17:40:49;9.20;99.90
18163;DHT22;9206;50.994;4.538;2023-04-03T17:44:06;9.20;99.90
18163;DHT22;9206;50.994;4.538;2023-04-03T17:47:37;9.00;99.90
18163;DHT22;9206;50.994;4.538;2023-04-03T17:50:33;8.90;99.90
18163;DHT22;9206;50.994;4.538;2023-04-03T17:53:21;8.80;99.90
18163;DHT22;9206;50.994;4.538;2023-04-03T17:56:12;8.70;99.90
18163;DHT22;9206;50.994;4.538;2023-04-03T18:03:05;8.60;99.90
18163;DHT22;9206;50.994;4.538;2023-04-03T18:10:12;8.40;99.90
18163;DHT22;9206;50.994;4.538;2023-04-03T18:13:00;8.30;99.90
18163;DHT22;9206;50.994;4.538;2023-04-03T18:15:48;8.20;99.90
18163;DHT22;9206;50.994;4.538;2023-04-03T18:18:39;8.10;99.90
18163;DHT22;9206;50.994;4.538;2023-04-03T18:21:28;8.10;99.90
18163;DHT22;9206;50.994;4.538;2023-04-03T18:24:17;7.90;99.90
18163;DHT22;9206;50.994;4.538;2023-04-03T18:30:14;7.90;99.90
18163;DHT22;9206;50.994;4.538;2023-04-03T18:33:14;7.70;99.90
18163;DHT22;9206;50.994;4.538;2023-04-03T18:36:35;7.60;99.90
18163;DHT22;9206;50.994;4.538;2023-04-03T18:43:22;7.30;99.90
18163;DHT22;9206;50.994;4.538;2023-04-03T18:46:27;7.30;99.90
18163;DHT22;9206;50.994;4.538;2023-04-03T18:49:17;7.20;99.90
18163;DHT22;9206;50.994;4.538;2023-04-03T18:52:06;7.10;99.90
18163;DHT22;9206;50.994;4.538;2023-04-03T18:55:33;7.10;99.90
18163;DHT22;9206;50.994;4.538;2023-04-03T18:58:20;7.00;99.90
18163;DHT22;9206;50.994;4.538;2023-04-03T19:03:43;6.90;99.90
18163;DHT22;9206;50.994;4.538;2023-04-03T19:06:32;6.80;99.90
18163;DHT22;9206;50.994;4.538;2023-04-03T19:09:47;6.80;99.90
18163;DHT22;9206;50.994;4.538;2023-04-03T19:12:45;6.80;99.90
18163;DHT22;9206;50.994;4.538;2023-04-03T19:15:55;6.70;99.90
18163;DHT22;9206;50.994;4.538;2023-04-03T19:18:58;6.60;99.90
18163;DHT22;9206;50.994;4.538;2023-04-03T19:25:20;6.50;99.90
18163;DHT22;9206;50.994;4.538;2023-04-03T19:28:08;6.50;99.90
18163;DHT22;9206;50.994;4.538;2023-04-03T19:30:58;6.40;99.90
18163;DHT22;9206;50.994;4.538;2023-04-03T19:36:59;6.30;99.90
18163;DHT22;9206;50.994;4.538;2023-04-03T19:39:53;6.20;99.90
18163;DHT22;9206;50.994;4.538;2023-04-03T19:42:47;6.10;99.90
18163;DHT22;9206;50.994;4.538;2023-04-03T19:45:40;6.00;99.90
18163;DHT22;9206;50.994;4.538;2023-04-03T19:48:42;5.90;99.90
18163;DHT22;9206;50.994;4.538;2023-04-03T19:51:39;5.80;99.90
18163;DHT22;9206;50.994;4.538;2023-04-03T19:54:40;5.70;99.90
18163;DHT22;9206;50.994;4.538;2023-04-03T19:58:00;5.60;99.90
18163;DHT22;9206;50.994;4.538;2023-04-03T20:00:54;5.50;99.90
18163;DHT22;9206;50.994;4.538;2023-04-03T20:03:50;5.50;99.90
18163;DHT22;9206;50.994;4.538;2023-04-03T20:06:44;5.50;99.90
18163;DHT22;9206;50.994;4.538;2023-04-03T20:09:37;5.40;99.90
18163;DHT22;9206;50.994;4.538;2023-04-03T20:16:09;5.30;99.90
18163;DHT22;9206;50.994;4.538;2023-04-03T20:19:03;5.30;99.90
18163;DHT22;9206;50.994;4.538;2023-04-03T20:22:03;5.30;99.90
18163;DHT22;9206;50.994;4.538;2023-04-03T20:24:50;5.20;99.90
18163;DHT22;9206;50.994;4.538;2023-04-03T20:27:36;5.30;99.90
18163;DHT22;9206;50.994;4.538;2023-04-03T20:30:24;5.30;99.90
18163;DHT22;9206;50.994;4.538;2023-04-03T20:33:15;5.30;99.90
18163;DHT22;9206;50.994;4.538;2023-04-03T20:36:32;5.20;99.90
18163;DHT22;9206;50.994;4.538;2023-04-03T20:39:57;5.20;99.90
18163;DHT22;9206;50.994;4.538;2023-04-03T20:43:09;5.10;99.90
18163;DHT22;9206;50.994;4.538;2023-04-03T20:46:01;5.10;99.90
18163;DHT22;9206;50.994;4.538;2023-04-03T20:49:12;5.10;99.90
18163;DHT22;9206;50.994;4.538;2023-04-03T20:52:00;5.00;99.90
18163;DHT22;9206;50.994;4.538;2023-04-03T20:54:52;5.00;99.90
18163;DHT22;9206;50.994;4.538;2023-04-03T20:57:43;4.90;99.90
18163;DHT22;9206;50.994;4.538;2023-04-03T21:00:53;4.90;99.90
18163;DHT22;9206;50.994;4.538;2023-04-03T21:03:44;4.90;99.90
18163;DHT22;9206;50.994;4.538;2023-04-03T21:23:59;4.70;99.90
18163;DHT22;9206;50.994;4.538;2023-04-03T21:27:07;4.60;99.90
18163;DHT22;9206;50.994;4.538;2023-04-03T21:29:58;4.60;99.90
18163;DHT22;9206;50.994;4.538;2023-04-03T21:35:18;4.40;99.90
18163;DHT22;9206;50.994;4.538;2023-04-03T21:41:57;4.30;99.90
18163;DHT22;9206;50.994;4.538;2023-04-03T21:44:45;4.30;99.90
18163;DHT22;9206;50.994;4.538;2023-04-03T21:47:34;4.30;99.90
18163;DHT22;9206;50.994;4.538;2023-04-03T21:50:24;4.30;99.90
18163;DHT22;9206;50.994;4.538;2023-04-03T21:55:27;4.20;99.90
18163;DHT22;9206;50.994;4.538;2023-04-03T21:56:55;4.10;99.90
18163;DHT22;9206;50.994;4.538;2023-04-03T22:08:43;4.10;99.90
18163;DHT22;9206;50.994;4.538;2023-04-03T22:11:50;4.00;99.90
18163;DHT22;9206;50.994;4.538;2023-04-03T22:14:40;4.10;99.90
18163;DHT22;9206;50.994;4.538;2023-04-03T22:17:29;4.00;99.90
18163;DHT22;9206;50.994;4.538;2023-04-03T22:23:55;4.00;99.90
18163;DHT22;9206;50.994;4.538;2023-04-03T22:40:58;3.80;99.90
18163;DHT22;9206;50.994;4.538;2023-04-03T22:43:56;3.80;99.90
18163;DHT22;9206;50.994;4.538;2023-04-03T22:46:43;3.70;99.90
18163;DHT22;9206;50.994;4.538;2023-04-03T22:58:18;3.70;99.90
18163;DHT22;9206;50.994;4.538;2023-04-03T23:01:09;3.70;99.90
18163;DHT22;9206;50.994;4.538;2023-04-03T23:04:30;3.60;99.90
18163;DHT22;9206;50.994;4.538;2023-04-03T23:07:23;3.50;99.90
18163;DHT22;9206;50.994;4.538;2023-04-03T23:10:24;3.60;99.90
18163;DHT22;9206;50.994;4.538;2023-04-03T23:13:24;3.50;99.90
18163;DHT22;9206;50.994;4.538;2023-04-03T23:26:13;3.30;99.90
18163;DHT22;9206;50.994;4.538;2023-04-03T23:29:09;3.20;99.90
18163;DHT22;9206;50.994;4.538;2023-04-03T23:32:04;3.20;99.90
18163;DHT22;9206;50.994;4.538;2023-04-03T23:35:06;3.20;99.90
18163;DHT22;9206;50.994;4.538;2023-04-03T23:37:57;3.10;99.90
18163;DHT22;9206;50.994;4.538;2023-04-03T23:40:45;3.10;99.90
18163;DHT22;9206;50.994;4.538;2023-04-03T23:43:36;3.00;99.90
18163;DHT22;9206;50.994;4.538;2023-04-03T23:48:58;3.00;99.90
18163;DHT22;9206;50.994;4.538;2023-04-03T23:52:11;3.00;99.90
18163;DHT22;9206;50.994;4.538;2023-04-03T23:54:58;3.00;99.90
18163;DHT22;9206;50.994;4.538;2023-04-03T23:57:47;2.90;99.90
